Time;durP1;ratioP1;P1;durP2;ratioP2;P2;SDS_P1;SDS_P2;PMS_P1;PMS_P2;Temp;Humidity;BMP_temperature;BMP_pressure;BME280_temperature;BME280_humidity;BME280_pressure;Samples;Min_cycle;Max_cycle;Signal;HPM_P1;HPM_P2
2021/01/21 00:00:09;;;;;;;4.55;3.45;;;5.10;99.90;;;;;;4997486;28;20449;-91
2021/01/21 00:02:35;;;;;;;4.15;3.72;;;5.10;99.90;;;;;;4997305;28;20133;-90
2021/01/21 00:05:03;;;;;;;3.40;3.10;;;5.10;99.90;;;;;;4997319;28;20046;-90
2021/01/21 00:07:29;;;;;;;4.40;3.72;;;5.20;99.90;;;;;;5014569;28;20057;-91
2021/01/21 00:09:55;;;;;;;3.60;3.30;;;5.10;99.90;;;;;;4997181;28;20080;-91
2021/01/21 00:12:21;;;;;;;4.30;3.28;;;5.00;99.90;;;;;;5014472;28;20049;-90
2021/01/21 00:14:47;;;;;;;4.97;3.83;;;5.00;99.90;;;;;;4998330;28;20100;-90
2021/01/21 00:17:13;;;;;;;3.65;3.35;;;5.00;99.90;;;;;;5016695;28;20124;-90
2021/01/21 00:19:40;;;;;;;4.97;3.13;;;5.00;99.90;;;;;;4997167;28;20042;-88
2021/01/21 00:22:06;;;;;;;3.30;3.10;;;5.00;99.90;;;;;;4997071;28;20060;-91
2021/01/21 00:24:32;;;;;;;3.20;3.00;;;4.90;99.90;;;;;;4997101;28;20522;-90
2021/01/21 00:26:58;;;;;;;3.85;3.47;;;4.80;99.90;;;;;;5014178;28;20049;-90
2021/01/21 00:29:25;;;;;;;3.80;3.45;;;4.70;99.90;;;;;;5014703;28;20410;-91
2021/01/21 00:31:52;;;;;;;7.85;3.42;;;4.60;99.90;;;;;;5014129;28;20050;-90
2021/01/21 00:34:19;;;;;;;12.38;3.53;;;4.50;99.90;;;;;;5014400;28;20048;-90
2021/01/21 00:36:45;;;;;;;5.57;3.35;;;4.40;99.90;;;;;;4996864;28;20125;-91
2021/01/21 00:39:12;;;;;;;5.18;3.20;;;4.30;99.90;;;;;;4997196;28;20457;-91
2021/01/21 00:41:38;;;;;;;5.63;2.92;;;4.10;99.90;;;;;;5014253;28;20085;-90
2021/01/21 00:44:04;;;;;;;6.63;3.80;;;4.00;99.90;;;;;;4997324;28;20440;-91
2021/01/21 00:46:31;;;;;;;3.50;3.20;;;3.90;99.90;;;;;;4996979;28;20138;-91
2021/01/21 00:48:57;;;;;;;7.43;4.03;;;3.80;99.90;;;;;;4998546;28;20487;-90
2021/01/21 00:51:26;;;;;;;6.15;3.75;;;3.70;99.90;;;;;;5000844;28;20061;-91
2021/01/21 00:53:53;;;;;;;6.05;4.20;;;3.60;99.90;;;;;;5000902;28;20491;-90
2021/01/21 00:56:19;;;;;;;4.68;3.63;;;3.60;99.90;;;;;;5000724;28;20041;-89
2021/01/21 00:58:46;;;;;;;4.57;3.22;;;3.50;99.90;;;;;;5000592;28;20498;-90
2021/01/21 01:01:12;;;;;;;3.97;3.38;;;3.40;99.90;;;;;;5003771;28;20069;-90
2021/01/21 01:03:38;;;;;;;4.63;3.17;;;3.30;99.90;;;;;;5000544;28;20081;-90
2021/01/21 01:06:07;;;;;;;5.88;3.30;;;3.10;99.90;;;;;;5000700;28;20136;-90
2021/01/21 01:08:34;;;;;;;5.13;3.40;;;3.00;99.90;;;;;;5000358;28;20501;-90
2021/01/21 01:11:01;;;;;;;4.88;2.90;;;2.90;99.90;;;;;;5017521;28;20133;-89
2021/01/21 01:13:27;;;;;;;3.67;3.03;;;2.90;99.90;;;;;;5000219;28;20046;-89
2021/01/21 01:15:53;;;;;;;3.67;2.85;;;2.90;99.90;;;;;;5017865;28;20054;-90
2021/01/21 01:18:20;;;;;;;3.42;2.72;;;2.80;99.90;;;;;;5000501;28;20548;-90
2021/01/21 01:20:48;;;;;;;4.38;3.30;;;2.80;99.90;;;;;;5000191;28;20045;-90
2021/01/21 01:23:15;;;;;;;4.85;3.17;;;2.70;99.90;;;;;;5000172;28;20058;-90
2021/01/21 01:25:41;;;;;;;3.83;2.90;;;2.80;99.90;;;;;;5000131;28;20077;-90
2021/01/21 01:28:08;;;;;;;4.95;3.38;;;2.70;99.90;;;;;;5017232;28;20565;-89
2021/01/21 01:30:34;;;;;;;3.35;3.00;;;2.70;99.90;;;;;;5000881;28;20046;-90
2021/01/21 01:33:00;;;;;;;7.05;3.10;;;2.70;99.90;;;;;;5001551;28;20050;-90
2021/01/21 01:35:27;;;;;;;4.57;3.03;;;2.60;99.90;;;;;;5000503;28;20465;-89
2021/01/21 01:37:53;;;;;;;4.03;2.97;;;2.60;99.90;;;;;;4999918;28;20148;-90
2021/01/21 01:40:20;;;;;;;3.88;2.90;;;2.60;99.90;;;;;;5017448;28;20124;-90
2021/01/21 01:42:46;;;;;;;8.63;3.38;;;2.60;99.90;;;;;;4999696;28;20141;-90
2021/01/21 01:45:13;;;;;;;5.38;3.15;;;2.50;99.90;;;;;;5000014;28;20138;-90
2021/01/21 01:47:44;;;;;;;4.60;3.38;;;2.50;99.90;;;;;;4999878;28;20050;-90
2021/01/21 01:50:13;;;;;;;5.70;3.35;;;2.50;99.90;;;;;;5017160;28;20049;-89
2021/01/21 01:52:44;;;;;;;4.72;2.95;;;2.40;99.90;;;;;;4999608;28;20464;-90
2021/01/21 01:55:12;;;;;;;3.17;2.90;;;2.40;99.90;;;;;;4999667;28;20050;-89
2021/01/21 01:57:40;;;;;;;3.58;3.00;;;2.40;99.90;;;;;;5016554;28;20058;-89
2021/01/21 02:00:08;;;;;;;7.68;3.55;;;2.30;99.90;;;;;;5015231;28;20133;-90
2021/01/21 02:02:34;;;;;;;4.47;3.42;;;2.20;99.90;;;;;;4999613;28;20149;-89
2021/01/21 02:05:02;;;;;;;3.53;3.22;;;2.10;99.90;;;;;;4999380;28;20541;-89
2021/01/21 02:07:29;;;;;;;8.32;3.60;;;2.10;99.90;;;;;;4999579;28;20119;-89
2021/01/21 02:09:57;;;;;;;10.15;3.60;;;2.00;99.90;;;;;;4999589;28;20141;-89
2021/01/21 02:13:00;;;;;;;7.07;3.50;;;2.00;99.90;;;;;;5016239;28;20109;-89
2021/01/21 02:15:58;;;;;;;6.50;4.22;;;2.10;99.90;;;;;;5016485;28;20077;-89
2021/01/21 02:18:42;;;;;;;3.85;3.35;;;2.10;99.90;;;;;;4996088;28;20449;-89
2021/01/21 02:21:39;;;;;;;4.70;3.30;;;2.10;99.90;;;;;;4999418;28;20069;-90
2021/01/21 02:24:21;;;;;;;5.00;2.80;;;2.10;99.90;;;;;;4999357;28;20073;-89
2021/01/21 02:26:56;;;;;;;8.02;3.70;;;2.00;99.90;;;;;;5016133;28;20049;-89
2021/01/21 02:29:33;;;;;;;4.72;3.17;;;2.00;99.90;;;;;;4999198;28;20045;-89
2021/01/21 02:32:06;;;;;;;7.15;3.72;;;1.90;99.90;;;;;;5015891;28;20137;-89
2021/01/21 02:34:45;;;;;;;9.05;3.90;;;1.90;99.90;;;;;;5016212;28;20050;-89
2021/01/21 02:37:24;;;;;;;8.73;3.67;;;1.90;99.90;;;;;;5016150;28;20184;-89
2021/01/21 02:39:55;;;;;;;19.38;4.40;;;1.90;99.90;;;;;;4998917;28;20096;-89
2021/01/21 02:42:21;;;;;;;20.65;3.67;;;1.90;99.90;;;;;;4999328;28;20445;-90
2021/01/21 02:44:48;;;;;;;9.55;4.25;;;1.90;99.90;;;;;;4998498;28;20106;-90
2021/01/21 02:47:16;;;;;;;4.53;4.03;;;1.90;99.90;;;;;;4999698;28;20140;-90
2021/01/21 02:49:43;;;;;;;5.88;4.20;;;2.10;99.90;;;;;;5017165;28;20045;-90
2021/01/21 02:52:27;;;;;;;5.25;3.85;;;2.50;99.90;;;;;;5015833;28;20085;-90
2021/01/21 02:54:53;;;;;;;4.82;3.33;;;2.80;99.90;;;;;;5015945;28;20553;-90
2021/01/21 02:57:32;;;;;;;5.80;3.42;;;3.10;99.90;;;;;;4998809;28;20050;-90
2021/01/21 03:00:04;;;;;;;3.42;2.83;;;3.50;99.90;;;;;;4998839;28;20491;-90
2021/01/21 03:02:36;;;;;;;3.35;3.05;;;4.00;99.90;;;;;;4998134;28;20132;-90
2021/01/21 03:05:04;;;;;;;3.70;3.25;;;4.40;99.90;;;;;;5015263;28;20050;-90
2021/01/21 03:07:32;;;;;;;3.60;3.08;;;4.50;99.90;;;;;;4998198;28;20092;-90
2021/01/21 03:09:59;;;;;;;4.10;3.30;;;4.60;99.90;;;;;;4998522;28;20054;-88
2021/01/21 03:12:27;;;;;;;3.50;3.20;;;4.70;99.90;;;;;;4997691;28;20042;-90
2021/01/21 03:14:55;;;;;;;3.47;3.10;;;4.80;99.90;;;;;;4997602;28;20053;-90
2021/01/21 03:17:24;;;;;;;5.60;3.47;;;4.80;99.90;;;;;;5015458;28;20164;-90
2021/01/21 03:19:51;;;;;;;4.15;3.75;;;4.80;99.90;;;;;;5015630;28;20133;-90
2021/01/21 03:22:17;;;;;;;4.40;3.28;;;4.80;99.90;;;;;;5015252;28;20140;-88
2021/01/21 03:24:44;;;;;;;4.65;3.55;;;4.70;99.90;;;;;;4997945;28;20089;-89
2021/01/21 03:27:10;;;;;;;5.15;3.22;;;4.70;99.90;;;;;;4998062;28;20469;-90
2021/01/21 03:29:37;;;;;;;3.65;3.35;;;4.70;99.90;;;;;;4997636;28;20049;-90
2021/01/21 03:32:04;;;;;;;4.72;3.33;;;4.60;99.90;;;;;;4997731;28;20139;-90
2021/01/21 03:34:30;;;;;;;4.22;3.60;;;4.50;99.90;;;;;;5015001;28;20046;-89
2021/01/21 03:36:57;;;;;;;3.92;3.53;;;4.50;99.90;;;;;;4997686;28;20046;-89
2021/01/21 03:39:23;;;;;;;5.00;4.18;;;4.50;99.90;;;;;;5014940;28;20046;-90
2021/01/21 03:41:51;;;;;;;4.07;3.67;;;4.50;99.90;;;;;;5014808;28;20050;-89
2021/01/21 03:44:18;;;;;;;3.95;3.50;;;4.50;99.90;;;;;;4997567;28;20498;-90
2021/01/21 03:46:44;;;;;;;5.70;3.95;;;4.50;99.90;;;;;;4997855;28;20128;-91
2021/01/21 03:49:11;;;;;;;8.10;3.65;;;4.50;99.90;;;;;;4997708;28;20050;-91
2021/01/21 03:51:37;;;;;;;4.10;3.70;;;4.40;99.90;;;;;;5014689;28;20132;-90
2021/01/21 03:54:04;;;;;;;6.63;3.80;;;4.50;99.90;;;;;;4997559;28;20092;-91
2021/01/21 03:56:30;;;;;;;4.50;3.80;;;4.60;99.90;;;;;;4997310;28;20112;-90
2021/01/21 03:58:56;;;;;;;4.13;3.65;;;4.60;99.90;;;;;;4997320;28;20057;-90
2021/01/21 04:01:22;;;;;;;4.07;3.67;;;4.70;99.90;;;;;;5015004;28;20053;-91
2021/01/21 04:03:51;;;;;;;4.35;3.45;;;4.70;99.90;;;;;;5016913;28;20117;-90
2021/01/21 04:06:17;;;;;;;4.85;3.70;;;4.70;99.90;;;;;;4999726;28;20453;-90
2021/01/21 04:08:44;;;;;;;7.53;4.20;;;4.70;99.90;;;;;;4996981;28;20124;-91
2021/01/21 04:11:10;;;;;;;5.60;3.83;;;4.60;99.90;;;;;;4997194;28;20140;-90
2021/01/21 04:13:36;;;;;;;5.50;3.95;;;4.50;99.90;;;;;;4998211;28;20049;-88
2021/01/21 04:16:03;;;;;;;4.68;4.05;;;4.30;99.90;;;;;;4997559;28;20133;-90
2021/01/21 04:18:29;;;;;;;4.35;4.03;;;4.10;99.90;;;;;;4997890;28;20569;-91
2021/01/21 04:20:55;;;;;;;4.35;3.95;;;4.00;99.90;;;;;;4998139;28;20081;-91
2021/01/21 04:23:21;;;;;;;5.40;4.00;;;3.90;99.90;;;;;;5014211;28;20054;-91
2021/01/21 04:25:47;;;;;;;4.78;4.15;;;3.90;99.90;;;;;;4997713;28;20132;-91
2021/01/21 04:28:13;;;;;;;5.40;3.97;;;3.80;99.90;;;;;;5014480;28;20191;-90
2021/01/21 04:30:40;;;;;;;4.13;3.72;;;3.80;99.90;;;;;;4998242;28;20050;-91
2021/01/21 04:33:06;;;;;;;5.30;4.72;;;3.60;99.90;;;;;;4997045;28;20144;-91
2021/01/21 04:35:33;;;;;;;6.00;3.92;;;3.50;99.90;;;;;;4997615;28;20502;-91
2021/01/21 04:38:00;;;;;;;11.00;4.50;;;3.40;99.90;;;;;;5015486;28;20064;-90
2021/01/21 04:40:26;;;;;;;8.88;4.38;;;3.40;99.90;;;;;;4998087;28;20050;-90
2021/01/21 04:42:53;;;;;;;9.80;4.72;;;3.20;99.90;;;;;;4996282;28;20104;-90
2021/01/21 04:45:20;;;;;;;8.68;4.30;;;3.00;99.90;;;;;;4997275;28;20086;-90
2021/01/21 04:47:47;;;;;;;8.93;4.03;;;2.80;99.90;;;;;;4996346;28;20054;-90
2021/01/21 04:50:14;;;;;;;12.57;4.30;;;2.60;99.90;;;;;;4996893;28;20410;-90
2021/01/21 04:52:43;;;;;;;10.60;4.68;;;2.50;99.90;;;;;;4998103;28;20505;-90
2021/01/21 04:55:31;;;;;;;10.85;4.13;;;2.40;99.90;;;;;;5017229;28;20054;-89
2021/01/21 04:58:17;;;;;;;11.77;4.25;;;2.40;99.90;;;;;;5014827;28;20054;-91
2021/01/21 05:00:44;;;;;;;5.13;3.90;;;2.50;99.90;;;;;;5014918;28;20137;-90
2021/01/21 05:03:12;;;;;;;8.02;4.10;;;2.70;99.90;;;;;;5014010;28;20097;-91
2021/01/21 05:05:39;;;;;;;9.38;4.28;;;2.90;99.90;;;;;;4996867;28;20073;-90
2021/01/21 05:08:06;;;;;;;4.63;3.75;;;3.00;99.90;;;;;;5014179;28;20049;-90
2021/01/21 05:10:33;;;;;;;3.80;3.30;;;3.20;99.90;;;;;;5013887;28;20466;-89
2021/01/21 05:13:00;;;;;;;5.78;3.67;;;3.30;99.90;;;;;;4996537;28;20108;-90
2021/01/21 05:15:26;;;;;;;3.83;3.47;;;3.40;99.90;;;;;;5013811;28;20042;-90
2021/01/21 05:17:53;;;;;;;4.28;3.88;;;3.40;99.90;;;;;;4996437;28;20517;-90
2021/01/21 05:20:26;;;;;;;5.53;3.72;;;3.40;99.90;;;;;;4999302;28;20066;-90
2021/01/21 05:22:58;;;;;;;12.02;3.85;;;3.40;99.90;;;;;;4996890;28;20057;-90
2021/01/21 05:25:26;;;;;;;15.37;4.00;;;3.30;99.90;;;;;;5013815;28;20050;-90
2021/01/21 05:27:55;;;;;;;25.63;5.03;;;3.30;99.90;;;;;;5013696;28;20088;-90
2021/01/21 05:30:22;;;;;;;12.00;4.43;;;3.20;99.90;;;;;;4996611;28;20148;-90
2021/01/21 05:32:49;;;;;;;12.85;4.40;;;3.00;99.90;;;;;;5013073;28;20050;-90
2021/01/21 05:35:16;;;;;;;9.32;4.00;;;2.90;99.90;;;;;;5015838;28;20045;-90
2021/01/21 05:37:54;;;;;;;11.02;5.00;;;2.80;99.90;;;;;;5000011;28;20077;-90
2021/01/21 05:40:25;;;;;;;11.10;5.10;;;2.60;99.90;;;;;;5000087;28;20117;-90
2021/01/21 05:42:57;;;;;;;5.63;3.50;;;2.50;99.90;;;;;;5016963;28;20081;-90
2021/01/21 05:45:25;;;;;;;5.20;3.53;;;2.40;99.90;;;;;;5016997;28;20149;-90
2021/01/21 05:47:59;;;;;;;10.95;3.95;;;2.20;99.90;;;;;;4999503;28;20054;-90
2021/01/21 05:50:27;;;;;;;11.30;4.40;;;2.20;99.90;;;;;;5016861;28;20056;-90
2021/01/21 05:52:55;;;;;;;14.15;4.75;;;2.10;99.90;;;;;;4999336;28;20092;-90
2021/01/21 05:55:26;;;;;;;20.27;6.10;;;2.10;99.90;;;;;;5016858;28;20109;-89
2021/01/21 05:57:56;;;;;;;19.50;4.95;;;2.00;99.90;;;;;;5016865;28;20054;-90
2021/01/21 06:00:25;;;;;;;12.93;5.32;;;2.00;99.90;;;;;;5016731;28;20046;-90
2021/01/21 06:02:52;;;;;;;11.27;4.43;;;1.80;99.90;;;;;;4999514;28;20173;-89
2021/01/21 06:05:20;;;;;;;20.40;4.72;;;1.80;99.90;;;;;;5000029;28;20083;-90
2021/01/21 06:07:48;;;;;;;15.88;5.85;;;1.80;99.90;;;;;;5000327;28;20096;-89
2021/01/21 06:10:16;;;;;;;14.68;5.15;;;1.80;99.90;;;;;;5017468;28;20152;-90
2021/01/21 06:12:47;;;;;;;12.65;4.70;;;1.80;99.90;;;;;;5016308;28;20125;-90
2021/01/21 06:15:14;;;;;;;7.00;4.00;;;1.80;99.90;;;;;;5016591;28;20387;-89
2021/01/21 06:17:46;;;;;;;9.80;4.65;;;1.80;99.90;;;;;;4999181;28;20053;-89
2021/01/21 06:20:14;;;;;;;6.95;4.82;;;1.80;99.90;;;;;;4999444;28;20049;-90
2021/01/21 06:22:42;;;;;;;4.68;3.55;;;1.90;99.90;;;;;;5020112;28;20506;-88
2021/01/21 06:25:12;;;;;;;4.75;3.90;;;1.90;99.90;;;;;;5037161;28;20081;-89
2021/01/21 06:27:43;;;;;;;6.55;4.22;;;1.90;99.90;;;;;;5018467;28;20140;-89
2021/01/21 06:30:20;;;;;;;4.00;3.60;;;1.90;99.90;;;;;;5035850;28;20053;-89
2021/01/21 06:33:00;;;;;;;4.22;3.80;;;1.80;99.90;;;;;;5051133;28;20060;-89
2021/01/21 06:35:51;;;;;;;5.07;3.55;;;1.90;99.90;;;;;;5020062;28;20046;-90
2021/01/21 06:38:23;;;;;;;44.00;10.15;;;2.00;99.90;;;;;;5020814;28;20408;-89
2021/01/21 06:40:53;;;;;;;6.25;3.90;;;2.00;99.90;;;;;;5017900;28;20092;-89
2021/01/21 06:43:28;;;;;;;6.32;4.28;;;1.90;99.90;;;;;;5018221;28;20057;-90
2021/01/21 06:45:57;;;;;;;73.55;38.35;;;1.90;99.90;;;;;;5019260;28;20042;-90
2021/01/21 06:48:25;;;;;;;27.65;8.52;;;1.90;99.90;;;;;;4998608;28;20487;-89
2021/01/21 06:50:52;;;;;;;30.92;11.32;;;1.70;99.90;;;;;;4998492;28;20662;-89
2021/01/21 06:53:19;;;;;;;64.45;28.00;;;1.70;99.90;;;;;;4998215;28;20081;-89
2021/01/21 06:55:51;;;;;;;33.28;16.30;;;1.60;99.90;;;;;;5015615;28;20092;-88
2021/01/21 06:58:45;;;;;;;18.15;8.40;;;1.50;99.90;;;;;;5015533;28;20049;-89
2021/01/21 07:01:41;;;;;;;16.77;6.13;;;1.50;99.90;;;;;;4998587;28;20045;-89
2021/01/21 07:04:08;;;;;;;16.00;11.43;;;1.50;99.90;;;;;;4983083;28;20042;-88
2021/01/21 07:07:06;;;;;;;11.50;6.15;;;1.40;99.90;;;;;;5001229;28;20063;-89
2021/01/21 07:09:34;;;;;;;25.20;7.15;;;1.50;99.90;;;;;;5009031;28;20045;-88
2021/01/21 07:12:01;;;;;;;16.65;7.88;;;1.60;99.90;;;;;;4998565;28;20099;-88
2021/01/21 07:14:34;;;;;;;25.10;7.07;;;1.60;99.90;;;;;;5015338;28;20061;-88
2021/01/21 07:17:05;;;;;;;74.30;9.73;;;1.60;99.90;;;;;;5015168;28;20124;-89
2021/01/21 07:19:38;;;;;;;50.55;8.63;;;1.60;99.90;;;;;;4998291;28;20054;-89
2021/01/21 07:22:22;;;;;;;28.17;7.85;;;1.60;99.90;;;;;;4997590;28;20081;-89
2021/01/21 07:25:01;;;;;;;20.55;7.00;;;1.70;99.90;;;;;;5014931;28;20418;-89
2021/01/21 07:27:29;;;;;;;24.65;6.97;;;1.70;99.90;;;;;;5017729;28;20045;-89
2021/01/21 07:30:28;;;;;;;20.35;7.10;;;1.70;99.90;;;;;;5010785;28;20049;-90
2021/01/21 07:33:26;;;;;;;27.70;8.60;;;1.80;99.90;;;;;;5020784;28;20054;-89
2021/01/21 07:35:53;;;;;;;10.80;4.70;;;1.90;99.90;;;;;;5008963;28;20398;-89
2021/01/21 07:38:44;;;;;;;24.50;5.85;;;2.20;99.90;;;;;;5031781;28;20119;-90
2021/01/21 07:41:45;;;;;;;13.85;3.05;;;2.80;99.90;;;;;;5013501;28;20489;-89
2021/01/21 07:44:11;;;;;;;16.20;3.95;;;3.40;99.90;;;;;;5017238;28;20600;-90
2021/01/21 07:46:37;;;;;;;3.00;1.83;;;3.90;99.90;;;;;;5019597;28;20069;-90
2021/01/21 07:49:23;;;;;;;32.45;4.65;;;4.30;99.90;;;;;;5017653;28;20482;-90
2021/01/21 07:52:06;;;;;;;1.83;1.70;;;4.90;99.90;;;;;;5019409;28;20139;-90
2021/01/21 07:54:47;;;;;;;2.05;1.15;;;5.60;99.90;;;;;;5021738;28;20122;-90
2021/01/21 07:57:21;;;;;;;0.98;0.93;;;6.40;99.90;;;;;;5016995;28;20045;-87
2021/01/21 08:00:00;;;;;;;;;;;6.80;99.90;;;;;;5034606;28;20502;-90
2021/01/21 08:02:42;;;;;;;1.10;1.00;;;7.30;99.90;;;;;;5016400;28;19970;-88
2021/01/21 08:05:09;;;;;;;2.90;2.60;;;7.70;99.90;;;;;;5016968;28;20112;-90
2021/01/21 08:07:44;;;;;;;1.48;1.02;;;8.00;99.90;;;;;;5017344;28;20057;-90
2021/01/21 08:10:11;;;;;;;1.17;1.10;;;8.10;99.90;;;;;;5016725;28;20144;-91
2021/01/21 08:12:38;;;;;;;1.38;1.27;;;8.30;99.90;;;;;;5033791;28;20073;-91
2021/01/21 08:15:04;;;;;;;1.00;1.00;;;8.40;97.90;;;;;;5035402;28;20537;-87
2021/01/21 08:17:31;;;;;;;0.82;0.82;;;8.50;97.50;;;;;;5016578;28;20112;-92
2021/01/21 08:19:57;;;;;;;1.40;1.10;;;8.70;95.90;;;;;;5017204;28;20064;-92
2021/01/21 08:22:24;;;;;;;1.45;0.95;;;8.70;94.10;;;;;;5013695;28;20081;-92
2021/01/21 08:25:00;;;;;;;1.33;1.17;;;8.70;93.00;;;;;;5013788;28;20053;-89
2021/01/21 08:27:47;;;;;;;2.08;1.08;;;8.70;94.30;;;;;;5013548;28;20125;-89
2021/01/21 08:30:22;;;;;;;3.35;1.20;;;8.60;93.10;;;;;;5015184;28;20136;-88
2021/01/21 08:33:02;;;;;;;1.70;1.38;;;8.70;91.70;;;;;;5014467;28;20120;-92
2021/01/21 08:35:36;;;;;;;1.80;1.27;;;8.80;92.40;;;;;;5046777;28;20058;-92
2021/01/21 08:38:23;;;;;;;1.50;1.15;;;8.70;92.30;;;;;;5011241;28;20046;-87
2021/01/21 08:40:51;;;;;;;3.15;1.00;;;8.70;92.20;;;;;;5013223;28;20585;-91
2021/01/21 08:43:19;;;;;;;1.63;1.20;;;8.80;91.00;;;;;;5046461;28;20108;-89
2021/01/21 08:45:46;;;;;;;1.13;1.02;;;8.80;91.00;;;;;;5014307;28;20133;-92
2021/01/21 08:48:31;;;;;;;1.42;1.30;;;8.80;90.70;;;;;;5046099;28;20173;-93
2021/01/21 08:50:57;;;;;;;2.28;1.27;;;8.80;91.10;;;;;;5015788;28;20464;-91
2021/01/21 08:53:29;;;;;;;1.23;1.00;;;8.80;91.30;;;;;;5047123;28;20490;-91
2021/01/21 08:55:57;;;;;;;0.77;0.77;;;8.90;91.80;;;;;;5046107;28;20101;-90
2021/01/21 08:58:31;;;;;;;9.57;1.42;;;8.90;90.40;;;;;;5013059;28;20081;-88
2021/01/21 09:01:09;;;;;;;1.30;1.10;;;8.90;92.40;;;;;;5045676;28;20137;-90
2021/01/21 09:03:51;;;;;;;3.40;1.23;;;8.90;91.30;;;;;;5045943;28;20045;-89
2021/01/21 09:06:21;;;;;;;1.15;1.05;;;9.00;91.80;;;;;;5047351;28;20042;-89
2021/01/21 09:08:58;;;;;;;1.30;1.20;;;9.10;89.20;;;;;;5014720;28;20108;-89
2021/01/21 09:11:32;;;;;;;0.80;0.80;;;9.40;88.40;;;;;;5051009;28;20124;-89
2021/01/21 09:14:01;;;;;;;1.23;1.13;;;9.50;86.40;;;;;;5051095;28;20065;-91
2021/01/21 09:16:45;;;;;;;1.60;1.10;;;9.50;84.20;;;;;;5050823;28;20138;-91
2021/01/21 09:19:17;;;;;;;1.10;1.00;;;9.50;85.50;;;;;;5017515;28;20518;-90
2021/01/21 09:22:05;;;;;;;1.17;1.08;;;9.50;86.30;;;;;;5052015;28;20100;-89
2021/01/21 09:24:33;;;;;;;1.48;1.38;;;9.40;87.00;;;;;;5018170;28;20141;-89
2021/01/21 09:27:16;;;;;;;1.10;1.10;;;9.40;87.90;;;;;;5018094;28;20152;-91
2021/01/21 09:29:55;;;;;;;1.40;1.30;;;9.40;87.30;;;;;;5035814;28;20071;-89
2021/01/21 09:32:24;;;;;;;2.05;1.55;;;9.40;87.90;;;;;;5017845;28;20127;-90
2021/01/21 09:34:56;;;;;;;1.42;1.33;;;9.30;93.20;;;;;;5017989;28;20544;-89
2021/01/21 09:37:23;;;;;;;4.78;1.60;;;9.10;93.90;;;;;;5036321;28;20037;-90
2021/01/21 09:39:50;;;;;;;1.88;1.45;;;9.10;95.10;;;;;;5037006;28;20140;-91
2021/01/21 09:42:17;;;;;;;1.95;1.08;;;9.10;98.20;;;;;;5019598;28;20045;-90
2021/01/21 09:44:44;;;;;;;2.15;0.90;;;9.00;99.90;;;;;;5020169;28;20584;-90
2021/01/21 09:47:11;;;;;;;1.20;1.10;;;8.90;99.90;;;;;;5039023;28;20129;-90
2021/01/21 09:49:39;;;;;;;2.00;1.50;;;8.70;99.90;;;;;;5020020;28;20095;-89
2021/01/21 09:52:06;;;;;;;1.75;1.27;;;8.50;99.90;;;;;;5020419;28;20132;-90
2021/01/21 09:54:33;;;;;;;2.30;1.80;;;8.30;99.90;;;;;;5024544;28;20109;-89
2021/01/21 09:56:59;;;;;;;1.70;1.60;;;8.10;99.90;;;;;;5031135;28;20049;-89
2021/01/21 09:59:26;;;;;;;3.47;1.88;;;8.00;99.90;;;;;;5040313;28;20133;-90
2021/01/21 10:01:52;;;;;;;2.90;1.70;;;8.00;99.90;;;;;;5036541;28;20053;-89
2021/01/21 10:04:18;;;;;;;1.52;1.33;;;8.00;99.90;;;;;;5036495;28;20132;-89
2021/01/21 10:06:45;;;;;;;3.30;2.00;;;8.20;99.90;;;;;;5036312;28;20391;-90
2021/01/21 10:09:11;;;;;;;3.13;1.58;;;8.40;99.90;;;;;;5036619;28;20133;-90
2021/01/21 10:11:39;;;;;;;1.52;1.42;;;8.60;99.90;;;;;;5018766;28;20128;-89
2021/01/21 10:14:05;;;;;;;1.92;1.30;;;9.00;99.90;;;;;;5036363;28;20482;-90
2021/01/21 10:16:32;;;;;;;1.02;1.02;;;9.90;99.90;;;;;;5018843;28;20053;-90
2021/01/21 10:18:59;;;;;;;0.80;0.80;;;11.00;94.20;;;;;;5036186;28;20052;-90
2021/01/21 10:21:26;;;;;;;1.70;0.98;;;11.90;90.90;;;;;;5017681;28;20049;-90
2021/01/21 10:23:53;;;;;;;1.42;0.75;;;12.50;85.00;;;;;;5036311;28;20109;-90
2021/01/21 10:26:20;;;;;;;0.73;0.73;;;13.10;76.40;;;;;;5020737;28;20535;-90
2021/01/21 10:28:48;;;;;;;1.45;0.90;;;13.20;72.40;;;;;;5037671;28;20107;-90
2021/01/21 10:31:15;;;;;;;1.13;1.02;;;13.10;73.10;;;;;;5019001;28;20080;-90
2021/01/21 10:33:43;;;;;;;2.28;1.38;;;12.40;74.40;;;;;;5035828;28;20051;-90
2021/01/21 10:36:10;;;;;;;2.63;1.17;;;12.30;76.00;;;;;;5018711;28;20144;-91
2021/01/21 10:38:39;;;;;;;2.88;1.30;;;11.90;77.90;;;;;;5018387;28;20059;-90
2021/01/21 10:41:07;;;;;;;1.55;1.33;;;11.70;83.50;;;;;;5035921;28;20127;-90
2021/01/21 10:43:35;;;;;;;1.20;1.10;;;11.40;86.70;;;;;;5035707;28;20061;-90
2021/01/21 10:46:01;;;;;;;1.25;0.80;;;11.30;91.00;;;;;;5035672;28;20572;-89
2021/01/21 10:48:28;;;;;;;2.75;0.90;;;11.30;90.90;;;;;;5018259;28;20072;-89
2021/01/21 10:50:55;;;;;;;0.65;0.65;;;11.60;90.40;;;;;;5017622;28;20050;-89
2021/01/21 10:53:21;;;;;;;1.02;0.70;;;11.70;91.50;;;;;;5017989;28;20045;-90
2021/01/21 10:55:48;;;;;;;2.80;0.70;;;11.50;91.40;;;;;;5018247;28;20160;-90
2021/01/21 10:58:14;;;;;;;0.73;0.47;;;11.50;92.60;;;;;;5035361;28;20140;-88
2021/01/21 11:00:41;;;;;;;0.55;0.55;;;11.80;90.60;;;;;;5017908;28;20124;-89
2021/01/21 11:03:08;;;;;;;2.95;1.00;;;11.80;90.30;;;;;;5018000;28;20288;-91
2021/01/21 11:05:35;;;;;;;3.17;0.70;;;12.50;87.80;;;;;;5035474;28;20379;-87
2021/01/21 11:08:01;;;;;;;5.40;1.17;;;12.90;82.10;;;;;;5050815;28;20076;-90
2021/01/21 11:10:28;;;;;;;1.50;0.75;;;13.40;82.40;;;;;;5035461;28;20045;-91
2021/01/21 11:12:54;;;;;;;0.88;0.70;;;13.60;76.50;;;;;;5035058;28;20140;-89
2021/01/21 11:15:21;;;;;;;2.45;0.95;;;13.40;77.30;;;;;;5025097;28;20405;-89
2021/01/21 11:17:47;;;;;;;0.73;0.73;;;13.20;77.90;;;;;;5019569;28;20081;-89
2021/01/21 11:20:14;;;;;;;0.77;0.57;;;12.80;79.70;;;;;;5017201;28;20486;-89
2021/01/21 11:22:41;;;;;;;0.60;0.60;;;12.90;79.10;;;;;;5035955;28;20390;-89
2021/01/21 11:25:08;;;;;;;0.40;0.40;;;13.40;79.60;;;;;;5051239;28;20132;-89
2021/01/21 11:27:55;;;;;;;1.27;0.80;;;13.70;76.60;;;;;;5034693;28;20491;-87
2021/01/21 11:30:22;;;;;;;0.50;0.50;;;13.60;77.40;;;;;;5034894;28;20057;-89
2021/01/21 11:32:49;;;;;;;0.93;0.70;;;13.90;76.20;;;;;;5017021;28;20061;-88
2021/01/21 11:35:15;;;;;;;1.55;0.63;;;14.20;75.70;;;;;;5017396;28;20049;-88
2021/01/21 11:37:41;;;;;;;1.60;0.60;;;13.80;74.40;;;;;;5017134;28;20045;-88
2021/01/21 11:40:08;;;;;;;0.63;0.50;;;13.10;78.20;;;;;;5017835;28;20124;-88
2021/01/21 11:42:35;;;;;;;1.33;0.80;;;12.30;84.20;;;;;;5018183;28;20085;-86
2021/01/21 11:45:05;;;;;;;1.25;0.70;;;11.80;89.80;;;;;;5034497;28;20045;-88
2021/01/21 11:47:39;;;;;;;0.63;0.60;;;11.50;93.50;;;;;;5034549;28;20052;-88
2021/01/21 11:50:11;;;;;;;1.10;0.57;;;11.50;99.90;;;;;;5017712;28;20383;-92
2021/01/21 11:52:39;;;;;;;1.13;0.30;;;11.70;99.90;;;;;;5034765;28;20049;-89
2021/01/21 11:55:07;;;;;;;2.58;0.60;;;11.90;99.90;;;;;;5036122;28;20088;-88
2021/01/21 11:57:33;;;;;;;0.65;0.65;;;11.80;99.90;;;;;;5017467;28;20140;-86
2021/01/21 12:00:01;;;;;;;0.60;0.40;;;11.60;99.90;;;;;;5017552;28;20390;-88
2021/01/21 12:02:30;;;;;;;0.50;0.50;;;11.20;99.90;;;;;;5035207;28;20145;-88
2021/01/21 12:04:56;;;;;;;0.55;0.55;;;10.90;99.90;;;;;;5018027;28;20049;-89
2021/01/21 12:07:23;;;;;;;0.60;0.60;;;10.80;99.90;;;;;;5033945;28;20132;-91
2021/01/21 12:09:49;;;;;;;0.75;0.65;;;10.90;99.90;;;;;;5016577;28;20542;-90
2021/01/21 12:12:15;;;;;;;0.40;0.40;;;11.00;99.90;;;;;;5047550;28;20133;-89
2021/01/21 12:14:41;;;;;;;0.50;0.50;;;11.00;99.90;;;;;;5004534;28;20056;-89
2021/01/21 12:17:07;;;;;;;0.50;0.50;;;11.20;99.90;;;;;;5009839;28;20129;-89
2021/01/21 12:19:34;;;;;;;0.55;0.55;;;11.30;99.90;;;;;;4997165;28;20049;-88
2021/01/21 12:22:00;;;;;;;0.68;0.50;;;11.20;99.90;;;;;;4997105;28;20089;-88
2021/01/21 12:24:27;;;;;;;0.43;0.43;;;11.10;99.90;;;;;;5015217;28;20104;-89
2021/01/21 12:26:53;;;;;;;0.52;0.52;;;11.00;99.90;;;;;;4997738;28;20074;-88
2021/01/21 12:29:19;;;;;;;1.02;0.60;;;11.00;99.90;;;;;;5014844;28;20140;-91
2021/01/21 12:31:45;;;;;;;0.47;0.47;;;11.00;99.90;;;;;;5015402;28;20564;-90
2021/01/21 12:34:12;;;;;;;1.95;0.60;;;11.00;99.90;;;;;;5015815;28;20050;-89
2021/01/21 12:36:38;;;;;;;2.25;0.82;;;10.90;99.90;;;;;;4998235;28;20490;-88
2021/01/21 12:39:05;;;;;;;0.50;0.50;;;10.80;99.90;;;;;;4998474;28;20054;-89
2021/01/21 12:41:32;;;;;;;1.15;0.50;;;10.60;99.90;;;;;;5012540;28;20052;-89
2021/01/21 12:43:58;;;;;;;0.80;0.70;;;10.60;99.90;;;;;;5012889;28;20050;-89
2021/01/21 12:46:28;;;;;;;0.73;0.70;;;10.60;99.90;;;;;;5014093;28;20104;-90
2021/01/21 12:48:57;;;;;;;0.60;0.60;;;10.70;99.90;;;;;;4996560;28;20129;-89
2021/01/21 12:51:24;;;;;;;0.95;0.75;;;10.70;99.90;;;;;;4995421;28;20054;-90
2021/01/21 12:53:50;;;;;;;1.15;0.80;;;10.70;99.90;;;;;;5013855;28;20108;-90
2021/01/21 12:56:17;;;;;;;2.20;0.68;;;10.70;99.90;;;;;;5014023;28;20080;-90
2021/01/21 12:58:44;;;;;;;1.45;0.65;;;10.70;99.90;;;;;;5013698;28;20133;-89
2021/01/21 13:01:11;;;;;;;1.92;0.70;;;10.70;99.90;;;;;;5013968;28;20089;-88
2021/01/21 13:03:40;;;;;;;1.33;0.50;;;10.70;99.90;;;;;;4996853;28;20096;-90
2021/01/21 13:06:07;;;;;;;0.70;0.63;;;10.70;99.90;;;;;;4997565;28;20100;-91